MLM583 TNCM-MMUN
Flight info
| Callsign | MLM583 |
|---|---|
| Flight time | N/A |
| Altitude | 40000 |
| Route | MODOR2 JUICE B520 ANTEX DCT CDO UL577 ILUBA ILUBA1E |
| Aircraft | A359/H-SDE2E3GHIJ3J4J5LM1ORWXY/LB1D1 |
Departure
| Time | 2026-04-30 13:22 |
|---|---|
| Airport | Princess Juliana International Airport (TNCM) |
Arrival
| Time | N/A |
|---|---|
| Airport | Cancún International Airport (MMUN) |
| Time | Latitude | Longitude | Altitude | Speed | Heading |
|---|---|---|---|---|---|
| 2026-04-30 12:47 | 18.04329 | -63.11292 | 27 ft | 0 kts | 352° |
| 2026-04-30 13:14 | 18.04328 | -63.11292 | 3 ft | 1 kts | 352° |
| 2026-04-30 13:14 | 18.04322 | -63.11291 | 32 ft | 1 kts | 352° |
| 2026-04-30 13:14 | 18.04292 | -63.11285 | 2 ft | 3 kts | 325° |
| 2026-04-30 13:15 | 18.04278 | -63.11270 | 27 ft | 3 kts | 284° |
| 2026-04-30 13:15 | 18.04276 | -63.11257 | 26 ft | 0 kts | 259° |
| 2026-04-30 13:17 | 18.04270 | -63.11276 | 26 ft | 4 kts | 243° |
| 2026-04-30 13:18 | 18.04246 | -63.11301 | 27 ft | 5 kts | 207° |
| 2026-04-30 13:18 | 18.04156 | -63.11298 | 27 ft | 8 kts | 173° |
| 2026-04-30 13:18 | 18.04092 | -63.11290 | 27 ft | 10 kts | 176° |
| 2026-04-30 13:19 | 18.04035 | -63.11331 | 26 ft | 11 kts | 242° |
| 2026-04-30 13:19 | 18.04019 | -63.11416 | 27 ft | 13 kts | 262° |
| 2026-04-30 13:19 | 18.04003 | -63.11526 | 28 ft | 17 kts | 261° |
| 2026-04-30 13:19 | 18.03985 | -63.11654 | 28 ft | 19 kts | 262° |
| 2026-04-30 13:20 | 18.03965 | -63.11796 | 28 ft | 21 kts | 262° |
| 2026-04-30 13:20 | 18.03985 | -63.11919 | 28 ft | 12 kts | 283° |
| 2026-04-30 13:20 | 18.03967 | -63.11942 | 28 ft | 2 kts | 185° |
| 2026-04-30 13:20 | 18.03956 | -63.11928 | 28 ft | 5 kts | 123° |
| 2026-04-30 13:21 | 18.03952 | -63.11874 | 28 ft | 10 kts | 82° |
| 2026-04-30 13:21 | 18.03956 | -63.11848 | 28 ft | 19 kts | 81° |
| 2026-04-30 13:21 | 18.04019 | -63.11415 | 27 ft | 100 kts | 81° |
| 2026-04-30 13:22 | 18.04294 | -63.09384 | 929 ft | 154 kts | 93° |
| 2026-04-30 13:22 | 18.03778 | -63.08417 | 1593 ft | 159 kts | 145° |
| 2026-04-30 13:22 | 18.01485 | -63.09032 | 2431 ft | 207 kts | 223° |
| 2026-04-30 13:23 | 18.00155 | -63.09639 | 2829 ft | 218 kts | 180° |
| 2026-04-30 13:23 | 17.96942 | -63.09312 | 3747 ft | 250 kts | 171° |
| 2026-04-30 13:24 | 17.93275 | -63.08868 | 4769 ft | 281 kts | 177° |
| 2026-04-30 13:24 | 17.89894 | -63.10721 | 6238 ft | 290 kts | 233° |
| 2026-04-30 13:25 | 17.88278 | -63.14420 | 8139 ft | 280 kts | 269° |
| 2026-04-30 13:25 | 17.89601 | -63.18188 | 9846 ft | 283 kts | 313° |
| 2026-04-30 13:26 | 17.94081 | -63.22670 | 11267 ft | 324 kts | 296° |
| 2026-04-30 13:26 | 17.95980 | -63.27175 | 12036 ft | 352 kts | 292° |
| 2026-04-30 13:27 | 17.97985 | -63.32023 | 13007 ft | 368 kts | 293° |
| 2026-04-30 13:28 | 18.01210 | -63.39473 | 14767 ft | 378 kts | 293° |
| 2026-04-30 13:28 | 18.03419 | -63.44526 | 15863 ft | 383 kts | 292° |
| 2026-04-30 13:28 | 18.04539 | -63.47083 | 16418 ft | 386 kts | 292° |
| 2026-04-30 13:29 | 18.06795 | -63.52239 | 17526 ft | 391 kts | 292° |
| 2026-04-30 13:29 | 18.09068 | -63.57438 | 18572 ft | 396 kts | 292° |
| 2026-04-30 13:30 | 18.12520 | -63.65416 | 20042 ft | 402 kts | 289° |
| 2026-04-30 13:31 | 18.13968 | -63.71077 | 21036 ft | 402 kts | 278° |
| 2026-04-30 13:31 | 18.15386 | -63.79830 | 22508 ft | 408 kts | 276° |
| 2026-04-30 13:32 | 18.16329 | -63.85755 | 23439 ft | 413 kts | 277° |
| 2026-04-30 13:32 | 18.17319 | -63.91733 | 24253 ft | 417 kts | 277° |
| 2026-04-30 13:33 | 18.18332 | -63.97756 | 25154 ft | 420 kts | 277° |
| 2026-04-30 13:33 | 18.19351 | -64.03820 | 26151 ft | 422 kts | 278° |
| 2026-04-30 13:34 | 18.19862 | -64.06868 | 26659 ft | 424 kts | 278° |
| 2026-04-30 13:34 | 18.21398 | -64.16046 | 28184 ft | 428 kts | 278° |
| 2026-04-30 13:35 | 18.21914 | -64.19145 | 28673 ft | 430 kts | 279° |
| 2026-04-30 13:35 | 18.22947 | -64.25369 | 29652 ft | 433 kts | 279° |
| 2026-04-30 13:36 | 18.23986 | -64.31634 | 30449 ft | 436 kts | 279° |
| 2026-04-30 13:36 | 18.24507 | -64.34784 | 30812 ft | 438 kts | 279° |
| 2026-04-30 13:36 | 18.25552 | -64.41097 | 31634 ft | 438 kts | 279° |
| 2026-04-30 13:37 | 18.26074 | -64.44255 | 31985 ft | 439 kts | 279° |
| 2026-04-30 13:37 | 18.27120 | -64.50597 | 32677 ft | 439 kts | 278° |
| 2026-04-30 13:38 | 18.28154 | -64.56876 | 33773 ft | 431 kts | 278° |
| 2026-04-30 13:38 | 18.28663 | -64.59970 | 34251 ft | 428 kts | 278° |
| 2026-04-30 13:38 | 18.29674 | -64.66127 | 34909 ft | 426 kts | 278° |
| 2026-04-30 13:39 | 18.30680 | -64.72259 | 35548 ft | 424 kts | 278° |
| 2026-04-30 13:39 | 18.31674 | -64.78360 | 36182 ft | 422 kts | 277° |
| 2026-04-30 13:40 | 18.32170 | -64.81407 | 36493 ft | 421 kts | 277° |
| 2026-04-30 13:40 | 18.32662 | -64.84430 | 36792 ft | 421 kts | 277° |
| 2026-04-30 13:40 | 18.33156 | -64.87462 | 37116 ft | 419 kts | 277° |
| 2026-04-30 13:40 | 18.33645 | -64.90469 | 37387 ft | 418 kts | 277° |
| 2026-04-30 13:41 | 18.34137 | -64.93504 | 37669 ft | 418 kts | 277° |
| 2026-04-30 13:41 | 18.34625 | -64.96514 | 37953 ft | 417 kts | 277° |
| 2026-04-30 13:41 | 18.35170 | -64.99505 | 38241 ft | 417 kts | 280° |
| 2026-04-30 13:41 | 18.36001 | -65.02447 | 38500 ft | 420 kts | 285° |
| 2026-04-30 13:42 | 18.37175 | -65.05274 | 38730 ft | 424 kts | 292° |
| 2026-04-30 13:42 | 18.38549 | -65.08023 | 38905 ft | 425 kts | 293° |
| 2026-04-30 13:42 | 18.41454 | -65.13460 | 39281 ft | 426 kts | 294° |
| 2026-04-30 13:43 | 18.42932 | -65.16169 | 39426 ft | 426 kts | 294° |
| 2026-04-30 13:43 | 18.44404 | -65.18872 | 39563 ft | 426 kts | 294° |
| 2026-04-30 13:43 | 18.45877 | -65.21586 | 39705 ft | 427 kts | 294° |
| 2026-04-30 13:43 | 18.47227 | -65.24354 | 39831 ft | 423 kts | 289° |
| 2026-04-30 13:44 | 18.48234 | -65.27201 | 39953 ft | 420 kts | 283° |
| 2026-04-30 13:44 | 18.48883 | -65.30196 | 39993 ft | 417 kts | 276° |
| 2026-04-30 13:44 | 18.49148 | -65.36258 | 39990 ft | 415 kts | 268° |
| 2026-04-30 13:45 | 18.48951 | -65.45372 | 39991 ft | 415 kts | 268° |
| 2026-04-30 13:46 | 18.48802 | -65.51457 | 39993 ft | 415 kts | 268° |
| 2026-04-30 13:46 | 18.48674 | -65.57520 | 39984 ft | 415 kts | 268° |
| 2026-04-30 13:47 | 18.48552 | -65.63606 | 39983 ft | 415 kts | 268° |
| 2026-04-30 13:47 | 18.48431 | -65.69689 | 40003 ft | 415 kts | 268° |
| 2026-04-30 13:48 | 18.48306 | -65.75763 | 39998 ft | 415 kts | 268° |
| 2026-04-30 13:48 | 18.48178 | -65.81860 | 40002 ft | 416 kts | 267° |
| 2026-04-30 13:49 | 18.48048 | -65.87948 | 40011 ft | 416 kts | 267° |
| 2026-04-30 13:49 | 18.47917 | -65.94025 | 39995 ft | 415 kts | 267° |
| 2026-04-30 13:50 | 18.47784 | -66.00105 | 40010 ft | 416 kts | 267° |
| 2026-04-30 13:50 | 18.47580 | -66.09259 | 40009 ft | 416 kts | 267° |
| 2026-04-30 13:51 | 18.47441 | -66.15351 | 40011 ft | 416 kts | 267° |
| 2026-04-30 13:51 | 18.47302 | -66.21423 | 40007 ft | 416 kts | 267° |
| 2026-04-30 13:52 | 18.47159 | -66.27535 | 40006 ft | 416 kts | 267° |
| 2026-04-30 13:52 | 18.47015 | -66.33629 | 40011 ft | 417 kts | 267° |
| 2026-04-30 13:53 | 18.46868 | -66.39726 | 40009 ft | 416 kts | 267° |
| 2026-04-30 13:53 | 18.46856 | -66.45792 | 40009 ft | 417 kts | 270° |
| 2026-04-30 13:54 | 18.47202 | -66.51925 | 40007 ft | 417 kts | 271° |
| 2026-04-30 13:54 | 18.47558 | -66.57998 | 40003 ft | 418 kts | 271° |
| 2026-04-30 13:55 | 18.47855 | -66.64089 | 40004 ft | 418 kts | 270° |
| 2026-04-30 13:55 | 18.48123 | -66.70199 | 40004 ft | 417 kts | 270° |
| 2026-04-30 13:56 | 18.48384 | -66.76314 | 40007 ft | 418 kts | 270° |
| 2026-04-30 13:56 | 18.48646 | -66.82429 | 40005 ft | 418 kts | 270° |
| 2026-04-30 13:57 | 18.48907 | -66.88531 | 40005 ft | 418 kts | 270° |
| 2026-04-30 13:57 | 18.49168 | -66.94662 | 39994 ft | 419 kts | 270° |
| 2026-04-30 13:58 | 18.49554 | -67.03860 | 39994 ft | 420 kts | 270° |
| 2026-04-30 13:59 | 18.49810 | -67.09996 | 40001 ft | 419 kts | 270° |
| 2026-04-30 13:59 | 18.49902 | -67.16156 | 39995 ft | 419 kts | 267° |
| 2026-04-30 14:00 | 18.49710 | -67.22283 | 39998 ft | 418 kts | 266° |
| 2026-04-30 14:00 | 18.49440 | -67.31482 | 39998 ft | 419 kts | 267° |
| 2026-04-30 14:01 | 18.49328 | -67.36582 | 39997 ft | 419 kts | 267° |
| 2026-04-30 14:01 | 18.49203 | -67.42726 | 39997 ft | 419 kts | 267° |
| 2026-04-30 14:02 | 18.49078 | -67.48864 | 39986 ft | 419 kts | 267° |
| 2026-04-30 14:02 | 18.48948 | -67.55011 | 40001 ft | 419 kts | 267° |
| 2026-04-30 14:03 | 18.48815 | -67.61152 | 39988 ft | 420 kts | 267° |
| 2026-04-30 14:03 | 18.48680 | -67.67297 | 39996 ft | 420 kts | 267° |
| 2026-04-30 14:04 | 18.48543 | -67.73441 | 40000 ft | 420 kts | 267° |
| 2026-04-30 14:04 | 18.48404 | -67.79587 | 39993 ft | 419 kts | 266° |
| 2026-04-30 14:05 | 18.48263 | -67.85729 | 39987 ft | 420 kts | 266° |
| 2026-04-30 14:05 | 18.48121 | -67.91873 | 39989 ft | 420 kts | 266° |
| 2026-04-30 14:06 | 18.47904 | -68.01088 | 39995 ft | 420 kts | 267° |
| 2026-04-30 14:07 | 18.47693 | -68.10304 | 39999 ft | 420 kts | 266° |
| 2026-04-30 14:08 | 18.47478 | -68.19475 | 39998 ft | 420 kts | 266° |
| 2026-04-30 14:08 | 18.47257 | -68.28699 | 39987 ft | 420 kts | 266° |
| 2026-04-30 14:09 | 18.47107 | -68.34849 | 39994 ft | 420 kts | 266° |
| 2026-04-30 14:10 | 18.46879 | -68.44080 | 39997 ft | 420 kts | 266° |
| 2026-04-30 14:10 | 18.46724 | -68.50230 | 39987 ft | 420 kts | 266° |
| 2026-04-30 14:11 | 18.46567 | -68.56386 | 39997 ft | 421 kts | 266° |
| 2026-04-30 14:11 | 18.46408 | -68.62547 | 39993 ft | 421 kts | 266° |
| 2026-04-30 14:12 | 18.46247 | -68.68712 | 39988 ft | 421 kts | 266° |
| 2026-04-30 14:12 | 18.46084 | -68.74877 | 39997 ft | 421 kts | 266° |
| 2026-04-30 14:13 | 18.45919 | -68.81041 | 39996 ft | 421 kts | 266° |
| 2026-04-30 14:13 | 18.45753 | -68.87204 | 39990 ft | 421 kts | 266° |
| 2026-04-30 14:14 | 18.45583 | -68.93381 | 39994 ft | 422 kts | 266° |
| 2026-04-30 14:14 | 18.45412 | -68.99553 | 39993 ft | 422 kts | 266° |
| 2026-04-30 14:15 | 18.45239 | -69.05733 | 39985 ft | 422 kts | 266° |
| 2026-04-30 14:15 | 18.45064 | -69.11907 | 39995 ft | 422 kts | 266° |
| 2026-04-30 14:16 | 18.44887 | -69.18085 | 39999 ft | 422 kts | 266° |
| 2026-04-30 14:16 | 18.44707 | -69.24260 | 39998 ft | 422 kts | 266° |
| 2026-04-30 14:17 | 18.44525 | -69.30444 | 40001 ft | 423 kts | 266° |
| 2026-04-30 14:17 | 18.44342 | -69.36633 | 40000 ft | 423 kts | 266° |
| 2026-04-30 14:18 | 18.44156 | -69.42817 | 39995 ft | 423 kts | 266° |
| 2026-04-30 14:18 | 18.43874 | -69.52096 | 39998 ft | 423 kts | 266° |
| 2026-04-30 14:19 | 18.43587 | -69.61382 | 39994 ft | 424 kts | 266° |
| 2026-04-30 14:20 | 18.43394 | -69.67583 | 39996 ft | 424 kts | 266° |
| 2026-04-30 14:20 | 18.43406 | -69.76901 | 39995 ft | 424 kts | 268° |
| 2026-04-30 14:21 | 18.43482 | -69.83111 | 39995 ft | 424 kts | 268° |
| 2026-04-30 14:22 | 18.43540 | -69.92440 | 39997 ft | 426 kts | 268° |
| 2026-04-30 14:22 | 18.43932 | -70.01764 | 39999 ft | 428 kts | 271° |
| 2026-04-30 14:23 | 18.45011 | -70.14250 | 40001 ft | 428 kts | 272° |
| 2026-04-30 14:24 | 18.45557 | -70.23624 | 39979 ft | 427 kts | 269° |
| 2026-04-30 14:25 | 18.45980 | -70.36170 | 40007 ft | 428 kts | 269° |
| 2026-04-30 14:26 | 18.46360 | -70.45567 | 39999 ft | 429 kts | 270° |
| 2026-04-30 14:27 | 18.46748 | -70.54990 | 39987 ft | 430 kts | 270° |
| 2026-04-30 14:27 | 18.47003 | -70.61292 | 39984 ft | 431 kts | 270° |
| 2026-04-30 14:28 | 18.47380 | -70.70767 | 39983 ft | 432 kts | 270° |
| 2026-04-30 14:28 | 18.47629 | -70.77086 | 39964 ft | 432 kts | 270° |
| 2026-04-30 14:29 | 18.48081 | -70.88700 | 39963 ft | 432 kts | 270° |
| 2026-04-30 14:31 | 18.48725 | -71.05547 | 39956 ft | 432 kts | 270° |
| 2026-04-30 14:31 | 18.49081 | -71.15044 | 39962 ft | 433 kts | 270° |
| 2026-04-30 14:32 | 18.49434 | -71.24544 | 39962 ft | 433 kts | 269° |
| 2026-04-30 14:33 | 18.49665 | -71.30884 | 39970 ft | 433 kts | 269° |
| 2026-04-30 14:33 | 18.50009 | -71.40398 | 39966 ft | 433 kts | 269° |
| 2026-04-30 14:34 | 18.50236 | -71.46739 | 39960 ft | 433 kts | 269° |
| 2026-04-30 14:34 | 18.50461 | -71.53087 | 39970 ft | 433 kts | 269° |
| 2026-04-30 14:35 | 18.50793 | -71.62607 | 39968 ft | 434 kts | 270° |
| 2026-04-30 14:36 | 18.51013 | -71.68960 | 39969 ft | 434 kts | 270° |
| 2026-04-30 14:36 | 18.51232 | -71.75319 | 39983 ft | 434 kts | 269° |
| 2026-04-30 14:37 | 18.51447 | -71.81669 | 39969 ft | 434 kts | 269° |
| 2026-04-30 14:37 | 18.51720 | -71.87985 | 39979 ft | 435 kts | 273° |
| 2026-04-30 14:38 | 18.52514 | -71.94314 | 39980 ft | 436 kts | 275° |
| 2026-04-30 14:38 | 18.53412 | -72.00640 | 39975 ft | 437 kts | 276° |
| 2026-04-30 14:39 | 18.54327 | -72.06967 | 39972 ft | 437 kts | 276° |
| 2026-04-30 14:39 | 18.55234 | -72.13295 | 39968 ft | 437 kts | 276° |
| 2026-04-30 14:40 | 18.56581 | -72.22787 | 39975 ft | 437 kts | 275° |
| 2026-04-30 14:40 | 18.57342 | -72.29133 | 39970 ft | 435 kts | 270° |
| 2026-04-30 14:41 | 18.56979 | -72.35472 | 39978 ft | 433 kts | 262° |
| 2026-04-30 14:41 | 18.56167 | -72.41770 | 39970 ft | 434 kts | 261° |
| 2026-04-30 14:42 | 18.55280 | -72.48059 | 39975 ft | 434 kts | 261° |
| 2026-04-30 14:42 | 18.54400 | -72.54349 | 39971 ft | 434 kts | 261° |
| 2026-04-30 14:43 | 18.53534 | -72.60634 | 39961 ft | 434 kts | 261° |
| 2026-04-30 14:43 | 18.52669 | -72.66933 | 39962 ft | 434 kts | 261° |
| 2026-04-30 14:44 | 18.51803 | -72.73230 | 39969 ft | 435 kts | 261° |
| 2026-04-30 14:44 | 18.50939 | -72.79492 | 39968 ft | 435 kts | 261° |
| 2026-04-30 14:45 | 18.50061 | -72.85836 | 39980 ft | 435 kts | 261° |
| 2026-04-30 14:45 | 18.49193 | -72.92097 | 39983 ft | 435 kts | 261° |
| 2026-04-30 14:46 | 18.48342 | -72.98402 | 39991 ft | 436 kts | 261° |
| 2026-04-30 14:46 | 18.47631 | -73.03700 | 39991 ft | 437 kts | 261° |
| 2026-04-30 14:47 | 18.46640 | -73.11061 | 39988 ft | 437 kts | 261° |
| 2026-04-30 14:47 | 18.45782 | -73.17400 | 39988 ft | 437 kts | 261° |
| 2026-04-30 14:48 | 18.45061 | -73.22704 | 40003 ft | 437 kts | 261° |
| 2026-04-30 14:48 | 18.44206 | -73.28993 | 39988 ft | 437 kts | 261° |
| 2026-04-30 14:49 | 18.43341 | -73.35330 | 39988 ft | 439 kts | 262° |
| 2026-04-30 14:49 | 18.42469 | -73.41700 | 39988 ft | 440 kts | 261° |
| 2026-04-30 14:50 | 18.41158 | -73.51258 | 39988 ft | 440 kts | 261° |
| 2026-04-30 14:51 | 18.39842 | -73.60814 | 39988 ft | 440 kts | 261° |
| 2026-04-30 14:52 | 18.38524 | -73.70349 | 40001 ft | 438 kts | 261° |
| 2026-04-30 14:52 | 18.37202 | -73.79869 | 39999 ft | 438 kts | 261° |
| 2026-04-30 14:53 | 18.35877 | -73.89389 | 40000 ft | 438 kts | 261° |
| 2026-04-30 14:54 | 18.34102 | -74.02078 | 40005 ft | 439 kts | 261° |
| 2026-04-30 14:55 | 18.32757 | -74.11645 | 40000 ft | 442 kts | 261° |
| 2026-04-30 14:56 | 18.30953 | -74.24422 | 39994 ft | 441 kts | 261° |
| 2026-04-30 14:57 | 18.29596 | -74.34002 | 39994 ft | 441 kts | 261° |
| 2026-04-30 14:58 | 18.27771 | -74.46828 | 39981 ft | 445 kts | 261° |
| 2026-04-30 14:58 | 18.26391 | -74.56483 | 39971 ft | 445 kts | 261° |
| 2026-04-30 15:00 | 18.26152 | -74.72639 | 39980 ft | 447 kts | 278° |
| 2026-04-30 15:01 | 18.28516 | -74.85481 | 39985 ft | 447 kts | 279° |
| 2026-04-30 15:01 | 18.30296 | -74.95121 | 39980 ft | 447 kts | 279° |
| 2026-04-30 15:02 | 18.31465 | -75.01553 | 39978 ft | 447 kts | 279° |
| 2026-04-30 15:03 | 18.34377 | -75.17656 | 39985 ft | 449 kts | 279° |
| 2026-04-30 15:04 | 18.37276 | -75.33756 | 39976 ft | 449 kts | 279° |
| 2026-04-30 15:06 | 18.40173 | -75.49920 | 39984 ft | 450 kts | 279° |
| 2026-04-30 15:07 | 18.42485 | -75.62885 | 39985 ft | 450 kts | 279° |
| 2026-04-30 15:08 | 18.44789 | -75.75853 | 39993 ft | 450 kts | 279° |
| 2026-04-30 15:09 | 18.47660 | -75.92088 | 39981 ft | 451 kts | 279° |
| 2026-04-30 15:10 | 18.49950 | -76.05098 | 39988 ft | 451 kts | 279° |
| 2026-04-30 15:11 | 18.53369 | -76.24618 | 39979 ft | 452 kts | 279° |
| 2026-04-30 15:13 | 18.56201 | -76.40915 | 39967 ft | 452 kts | 279° |
| 2026-04-30 15:14 | 18.60141 | -76.63714 | 39978 ft | 453 kts | 279° |
| 2026-04-30 15:17 | 18.65184 | -76.93142 | 39981 ft | 454 kts | 279° |
| 2026-04-30 15:19 | 18.69647 | -77.19424 | 39987 ft | 456 kts | 279° |